createdAt,value
2023-05-11T00:02:02.431Z,9.93
2023-05-11T00:07:04.000Z,9.52
2023-05-11T00:12:06.041Z,9.50
2023-05-11T00:17:07.580Z,7.75
2023-05-11T00:22:09.068Z,7.47
2023-05-11T00:27:10.648Z,9.68
2023-05-11T00:32:12.355Z,10.10
2023-05-11T00:37:13.916Z,8.77
2023-05-11T00:42:15.410Z,5.50
2023-05-11T00:47:17.225Z,11.45
2023-05-11T00:52:19.606Z,7.50
2023-05-11T00:57:21.458Z,12.02
2023-05-11T01:02:23.043Z,10.30
2023-05-11T01:07:28.710Z,10.75
2023-05-11T01:12:46.064Z,10.30
2023-05-11T01:18:01.391Z,11.48
2023-05-11T01:23:18.501Z,9.13
2023-05-11T01:28:39.634Z,11.30
2023-05-11T01:33:51.476Z,15.35
2023-05-11T01:38:54.723Z,13.63
2023-05-11T01:44:03.002Z,12.48
2023-05-11T01:49:09.856Z,8.75
2023-05-11T01:54:11.888Z,14.65
2023-05-11T01:59:14.578Z,11.48
2023-05-11T02:04:19.772Z,11.57
2023-05-11T02:09:22.554Z,10.85
2023-05-11T02:14:28.469Z,17.83
2023-05-11T02:19:32.745Z,12.50
2023-05-11T02:24:35.603Z,15.93
2023-05-11T02:29:37.113Z,18.42
2023-05-11T02:34:41.562Z,10.93
2023-05-11T02:39:46.417Z,13.00
2023-05-11T02:44:56.547Z,11.10
2023-05-11T02:50:01.389Z,16.17
2023-05-11T02:55:06.479Z,13.80
2023-05-11T03:00:08.496Z,11.60
2023-05-11T03:05:10.188Z,16.08
2023-05-11T03:10:11.879Z,10.63
2023-05-11T03:15:18.547Z,11.15
2023-05-11T03:20:24.000Z,14.07
2023-05-11T03:25:25.998Z,11.55
2023-05-11T03:30:29.048Z,13.05
2023-05-11T03:35:34.932Z,14.63
2023-05-11T03:40:38.317Z,11.15
2023-05-11T03:45:42.798Z,9.27
2023-05-11T03:50:44.734Z,10.85
2023-05-11T03:55:46.258Z,13.07
2023-05-11T04:00:48.518Z,12.95
2023-05-11T04:05:50.005Z,11.13
2023-05-11T04:10:51.621Z,10.55
2023-05-11T04:15:54.395Z,10.75
2023-05-11T04:20:56.308Z,9.55
2023-05-11T04:25:57.848Z,11.20
2023-05-11T04:30:59.321Z,12.77
2023-05-11T04:36:01.593Z,10.05
2023-05-11T04:41:08.167Z,11.23
2023-05-11T04:46:10.924Z,11.25
2023-05-11T04:51:12.717Z,13.80
2023-05-11T04:56:20.011Z,15.15
2023-05-11T05:01:23.341Z,8.98
2023-05-11T05:06:24.816Z,8.18
2023-05-11T05:11:26.357Z,9.60
2023-05-11T05:16:29.074Z,6.82
2023-05-11T05:21:32.474Z,10.20
2023-05-11T05:26:34.078Z,9.18
2023-05-11T05:31:35.746Z,9.15
2023-05-11T05:36:39.331Z,6.68
2023-05-11T05:41:42.930Z,17.38
2023-05-11T05:46:45.456Z,14.55
2023-05-11T05:51:47.931Z,11.55
2023-05-11T05:56:50.366Z,15.85
2023-05-11T06:01:51.888Z,9.57
2023-05-11T06:06:53.537Z,14.88
2023-05-11T06:11:55.701Z,16.40
2023-05-11T06:16:59.168Z,13.70
2023-05-11T06:22:05.855Z,15.23
2023-05-11T06:27:09.380Z,10.50
2023-05-11T06:32:11.114Z,14.02
2023-05-11T06:37:20.461Z,13.40
2023-05-11T06:42:24.652Z,14.00
2023-05-11T06:47:26.844Z,13.73
2023-05-11T06:52:28.626Z,19.25
2023-05-11T06:57:30.146Z,10.55
2023-05-11T07:02:31.839Z,13.20
2023-05-11T07:07:33.336Z,15.65
2023-05-11T07:12:34.894Z,11.32
2023-05-11T07:17:36.375Z,16.58
2023-05-11T07:22:37.830Z,8.68
2023-05-11T07:27:39.327Z,14.18
2023-05-11T07:32:40.881Z,12.63
2023-05-11T07:37:42.691Z,16.25
2023-05-11T07:42:44.339Z,16.13
2023-05-11T07:47:46.014Z,12.77
2023-05-11T07:52:47.667Z,13.93
2023-05-11T07:57:49.159Z,14.82
2023-05-11T08:02:50.579Z,18.48
2023-05-11T08:07:52.105Z,16.92
2023-05-11T08:12:53.585Z,11.48
2023-05-11T08:17:55.397Z,12.27
2023-05-11T08:22:57.782Z,12.32
2023-05-11T08:27:59.249Z,10.25
2023-05-11T08:33:00.838Z,11.57
2023-05-11T08:38:02.386Z,9.98
2023-05-11T08:43:05.637Z,13.05
2023-05-11T08:48:07.335Z,11.77
2023-05-11T08:53:08.855Z,9.23
2023-05-11T08:58:10.958Z,9.90
2023-05-11T09:03:13.081Z,9.70
2023-05-11T09:08:17.243Z,10.20
2023-05-11T09:13:18.836Z,11.82
2023-05-11T09:18:20.724Z,8.93
2023-05-11T09:23:26.917Z,8.93
2023-05-11T09:33:36.902Z,7.38
2023-05-11T09:38:38.458Z,5.78
2023-05-11T09:43:40.045Z,5.47
2023-05-11T09:48:41.585Z,5.45
2023-05-11T09:58:57.549Z,4.97
2023-05-11T10:04:17.842Z,6.70
2023-05-11T10:09:25.280Z,4.70
2023-05-11T10:14:27.537Z,4.47
2023-05-11T10:19:29.232Z,4.75
2023-05-11T10:24:32.429Z,5.20
2023-05-11T10:29:34.419Z,4.22
2023-05-11T10:34:36.787Z,3.28
2023-05-11T10:39:39.856Z,4.55
2023-05-11T10:45:03.093Z,4.60
2023-05-11T10:50:34.025Z,4.45
2023-05-11T10:55:52.471Z,5.07
2023-05-11T11:01:06.262Z,5.38
2023-05-11T11:06:22.629Z,4.25
2023-05-11T11:11:32.276Z,5.15
2023-05-11T11:16:33.923Z,6.38
2023-05-11T11:21:42.604Z,5.82
2023-05-11T11:26:50.583Z,4.57
2023-05-11T11:31:52.167Z,3.67
2023-05-11T11:37:03.519Z,6.10
2023-05-11T11:42:13.036Z,5.53
2023-05-11T11:52:26.645Z,7.07
2023-05-11T11:57:43.950Z,8.60
2023-05-11T12:02:45.821Z,8.05
2023-05-11T12:07:50.529Z,10.88
2023-05-11T12:12:58.583Z,9.63
2023-05-11T12:23:04.674Z,11.55
2023-05-11T12:28:06.564Z,10.45
2023-05-11T12:33:08.267Z,13.27
2023-05-11T12:38:10.980Z,12.48
2023-05-11T12:43:17.850Z,11.73
2023-05-11T12:48:19.473Z,11.20
2023-05-11T12:53:22.079Z,8.35
2023-05-11T12:58:23.616Z,8.77
2023-05-11T13:03:34.079Z,7.70
2023-05-11T13:08:46.400Z,6.45
2023-05-11T13:13:51.683Z,9.18
2023-05-11T13:18:59.147Z,7.63
2023-05-11T13:24:01.969Z,6.95
2023-05-11T13:29:10.866Z,7.70
2023-05-11T13:34:12.949Z,6.20
2023-05-11T13:39:14.563Z,6.72
2023-05-11T13:44:16.117Z,4.97
2023-05-11T13:49:17.700Z,5.25
2023-05-11T13:54:19.297Z,4.72
2023-05-11T13:59:21.320Z,5.47
2023-05-11T14:04:22.908Z,3.38
2023-05-11T14:09:24.450Z,5.97
2023-05-11T14:14:26.205Z,3.10
2023-05-11T14:19:27.765Z,4.55
2023-05-11T14:24:29.320Z,3.75
2023-05-11T14:29:30.854Z,4.97
2023-05-11T14:34:32.307Z,7.05
2023-05-11T14:39:33.777Z,4.55
2023-05-11T14:44:35.335Z,4.93
2023-05-11T14:49:36.954Z,4.30
2023-05-11T14:54:38.516Z,4.70
2023-05-11T14:59:51.064Z,4.75
2023-05-11T15:04:59.674Z,4.78
2023-05-11T15:10:02.182Z,4.55
2023-05-11T15:15:04.630Z,5.10
2023-05-11T15:20:07.212Z,4.13
2023-05-11T15:25:09.267Z,6.18
2023-05-11T15:30:11.217Z,7.25
2023-05-11T15:35:14.230Z,8.18
2023-05-11T15:40:16.210Z,8.50
2023-05-11T15:45:18.336Z,10.10
2023-05-11T15:50:20.488Z,7.95
2023-05-11T15:55:23.360Z,6.38
2023-05-11T16:00:24.822Z,9.63
2023-05-11T16:05:26.798Z,10.32
2023-05-11T16:10:28.338Z,8.18
2023-05-11T16:15:31.153Z,11.48
2023-05-11T16:20:32.952Z,10.10
2023-05-11T16:25:34.475Z,12.02
2023-05-11T16:30:36.392Z,18.13
2023-05-11T16:35:37.880Z,14.07
2023-05-11T16:40:39.356Z,15.95
2023-05-11T16:45:40.862Z,21.80
2023-05-11T16:50:43.011Z,15.52
2023-05-11T16:55:44.490Z,18.08
2023-05-11T17:00:45.971Z,16.98
2023-05-11T17:05:47.596Z,16.95
2023-05-11T17:10:49.106Z,15.57
2023-05-11T17:15:51.439Z,16.42
2023-05-11T17:20:56.724Z,16.52
2023-05-11T17:25:59.160Z,15.95
2023-05-11T17:31:11.558Z,17.65
2023-05-11T17:36:13.221Z,14.98
2023-05-11T17:41:15.453Z,12.50
2023-05-11T17:46:17.133Z,12.25
2023-05-11T17:51:20.211Z,12.88
2023-05-11T17:56:22.301Z,12.40
2023-05-11T18:01:23.834Z,11.60
2023-05-11T18:06:25.605Z,9.48
2023-05-11T18:11:27.642Z,8.30
2023-05-11T18:16:29.176Z,8.55
2023-05-11T18:21:31.110Z,9.05
2023-05-11T18:26:32.602Z,8.82
2023-05-11T18:31:34.179Z,8.48
2023-05-11T18:36:35.705Z,11.57
2023-05-11T18:41:37.245Z,9.13
2023-05-11T18:46:38.800Z,11.55
2023-05-11T18:51:40.761Z,11.05
2023-05-11T18:56:42.655Z,9.05
2023-05-11T19:01:47.896Z,11.85
2023-05-11T19:06:50.024Z,10.60
2023-05-11T19:11:51.531Z,10.48
2023-05-11T19:16:53.060Z,10.43
2023-05-11T19:21:54.533Z,16.02
2023-05-11T19:27:06.752Z,10.38
2023-05-11T19:32:09.612Z,9.63
2023-05-11T19:37:11.416Z,11.40
2023-05-11T19:42:12.920Z,11.52
2023-05-11T19:47:14.569Z,13.80
2023-05-11T19:52:16.302Z,12.40
2023-05-11T19:57:18.425Z,13.20
2023-05-11T20:02:20.024Z,14.45
2023-05-11T20:07:24.825Z,10.00
2023-05-11T20:12:26.370Z,12.80
2023-05-11T20:17:31.208Z,13.32
2023-05-11T20:22:32.763Z,16.50
2023-05-11T20:27:34.500Z,10.68
2023-05-11T20:32:37.219Z,9.43
2023-05-11T20:37:39.703Z,9.48
2023-05-11T20:42:41.363Z,11.27
2023-05-11T20:47:42.958Z,10.77
2023-05-11T20:52:44.573Z,10.70
2023-05-11T20:57:46.081Z,9.38
2023-05-11T21:02:47.732Z,14.10
2023-05-11T21:07:49.303Z,8.18
2023-05-11T21:12:50.949Z,10.63
2023-05-11T21:17:53.124Z,9.90
2023-05-11T21:22:54.679Z,10.63
2023-05-11T21:27:56.311Z,13.63
2023-05-11T21:32:57.918Z,12.63
2023-05-11T21:37:59.446Z,10.98
2023-05-11T21:43:00.996Z,13.30
2023-05-11T21:48:02.513Z,9.52
2023-05-11T21:53:04.784Z,16.85
2023-05-11T21:58:06.342Z,11.43
2023-05-11T22:03:08.237Z,12.02
2023-05-11T22:08:15.105Z,11.73
2023-05-11T22:13:17.140Z,12.32
2023-05-11T22:18:18.790Z,10.23
2023-05-11T22:23:21.124Z,12.90
2023-05-11T22:28:22.864Z,15.02
2023-05-11T22:33:24.517Z,11.90
2023-05-11T22:38:26.073Z,12.50
2023-05-11T22:43:27.706Z,9.02
2023-05-11T22:48:29.348Z,12.63
2023-05-11T22:53:31.212Z,11.73
2023-05-11T22:58:33.190Z,12.75
2023-05-11T23:03:34.726Z,12.13
2023-05-11T23:08:36.311Z,12.93
2023-05-11T23:13:38.223Z,13.93
2023-05-11T23:18:39.941Z,18.00
2023-05-11T23:23:44.474Z,12.40
2023-05-11T23:28:46.163Z,14.35
2023-05-11T23:33:47.694Z,15.48
2023-05-11T23:38:49.445Z,14.63
2023-05-11T23:43:50.985Z,12.32
2023-05-11T23:48:52.505Z,13.75
2023-05-11T23:53:54.096Z,18.75
2023-05-11T23:58:55.629Z,12.00
